Time;durP1;ratioP1;P1;durP2;ratioP2;P2;SDS_P1;SDS_P2;PMS_P1;PMS_P2;Temp;Humidity;BMP_temperature;BMP_pressure;BME280_temperature;BME280_humidity;BME280_pressure;Samples;Min_cycle;Max_cycle;Signal;HPM_P1;HPM_P2
2021/07/19 00:01:43;;;;;;;5.30;3.87;;;20.70;99.90;;;;;;5036767;28;20600;-72
2021/07/19 00:04:10;;;;;;;8.23;4.43;;;20.70;99.90;;;;;;5037445;28;20636;-72
2021/07/19 00:06:36;;;;;;;3.87;3.17;;;20.70;99.90;;;;;;5036634;28;20623;-72
2021/07/19 00:09:03;;;;;;;10.17;3.80;;;20.70;99.90;;;;;;5036488;28;20981;-70
2021/07/19 00:11:29;;;;;;;6.00;3.10;;;20.70;99.90;;;;;;5035562;28;20628;-72
2021/07/19 00:13:56;;;;;;;4.30;3.60;;;20.60;99.90;;;;;;5037203;28;20669;-70
2021/07/19 00:16:23;;;;;;;3.60;3.30;;;20.60;99.90;;;;;;5037079;28;20660;-72
2021/07/19 00:18:49;;;;;;;3.60;3.00;;;20.60;99.90;;;;;;5036436;28;20612;-72
2021/07/19 00:21:16;;;;;;;4.00;3.50;;;20.60;99.90;;;;;;5036600;28;20600;-72
2021/07/19 00:23:42;;;;;;;4.40;3.97;;;20.60;99.90;;;;;;5036827;28;20940;-72
2021/07/19 00:26:09;;;;;;;4.43;3.40;;;20.50;99.90;;;;;;5036481;28;20610;-72
2021/07/19 00:28:35;;;;;;;7.60;3.80;;;20.50;99.90;;;;;;5036547;28;20623;-72
2021/07/19 00:31:01;;;;;;;6.07;3.30;;;20.50;99.90;;;;;;5036510;28;20627;-73
2021/07/19 00:33:28;;;;;;;3.57;3.20;;;20.50;99.90;;;;;;5036520;28;20978;-72
2021/07/19 00:35:54;;;;;;;4.90;3.63;;;20.50;99.90;;;;;;5036405;28;20998;-72
2021/07/19 00:38:20;;;;;;;6.80;3.43;;;20.50;99.90;;;;;;5036444;28;20608;-72
2021/07/19 00:40:47;;;;;;;3.40;3.13;;;20.50;99.90;;;;;;5035133;28;20644;-72
2021/07/19 00:43:13;;;;;;;6.43;3.10;;;20.50;99.90;;;;;;5036245;28;20686;-72
2021/07/19 00:45:39;;;;;;;4.43;4.07;;;20.50;99.90;;;;;;5036201;28;20694;-72
2021/07/19 00:48:07;;;;;;;4.67;3.47;;;20.50;99.90;;;;;;5035776;28;20646;-72
2021/07/19 00:50:37;;;;;;;4.33;3.90;;;20.50;99.90;;;;;;5036200;28;20974;-72
2021/07/19 00:53:07;;;;;;;4.00;3.30;;;20.40;99.90;;;;;;5034994;28;20954;-72
2021/07/19 00:55:37;;;;;;;3.63;3.13;;;20.40;99.90;;;;;;5036245;28;20974;-72
2021/07/19 00:58:06;;;;;;;4.20;3.33;;;20.30;99.90;;;;;;5036360;28;20931;-72
2021/07/19 01:00:37;;;;;;;4.30;3.50;;;20.30;99.90;;;;;;5036220;28;20592;-72
2021/07/19 01:03:04;;;;;;;4.07;3.20;;;20.20;99.90;;;;;;5036219;28;20548;-72
2021/07/19 01:05:31;;;;;;;6.37;3.43;;;20.20;99.90;;;;;;5034737;28;20619;-72
2021/07/19 01:07:58;;;;;;;4.93;3.70;;;20.20;99.90;;;;;;5035776;28;20708;-72
2021/07/19 01:10:25;;;;;;;6.53;3.60;;;20.20;99.90;;;;;;5035673;28;20642;-72
2021/07/19 01:12:54;;;;;;;3.93;3.63;;;20.10;99.90;;;;;;5034232;28;20632;-72
2021/07/19 01:15:26;;;;;;;4.10;3.80;;;20.10;99.90;;;;;;5035324;28;20596;-72
2021/07/19 01:17:53;;;;;;;4.70;3.97;;;20.10;99.90;;;;;;5035802;28;20584;-72
2021/07/19 01:20:23;;;;;;;4.03;3.57;;;20.00;99.90;;;;;;5035568;28;21188;-72
2021/07/19 01:23:22;;;;;;;3.70;3.40;;;20.00;99.90;;;;;;5035459;28;20942;-72
2021/07/19 01:26:07;;;;;;;5.13;4.10;;;20.00;99.90;;;;;;5035276;28;20611;-72
2021/07/19 01:28:47;;;;;;;4.30;3.90;;;20.00;99.90;;;;;;5035329;28;20619;-72
2021/07/19 01:31:18;;;;;;;4.07;3.77;;;19.90;99.90;;;;;;5035405;28;20615;-72
2021/07/19 01:33:50;;;;;;;7.03;4.43;;;19.90;99.90;;;;;;5035655;28;20635;-72
2021/07/19 01:36:22;;;;;;;4.50;4.20;;;19.90;99.90;;;;;;5034935;28;20659;-72
2021/07/19 01:38:48;;;;;;;8.47;4.30;;;19.90;99.90;;;;;;5035015;28;20567;-72
2021/07/19 01:41:17;;;;;;;8.07;4.10;;;19.90;99.90;;;;;;5033835;28;20973;-72
2021/07/19 01:43:46;;;;;;;8.20;4.10;;;19.80;99.90;;;;;;5035062;28;20622;-72
2021/07/19 01:46:14;;;;;;;4.73;4.43;;;19.90;99.90;;;;;;5034624;28;20600;-72
2021/07/19 01:48:41;;;;;;;5.33;3.40;;;19.90;99.90;;;;;;5033699;28;20713;-72
2021/07/19 01:51:08;;;;;;;7.53;4.73;;;19.90;99.90;;;;;;5034670;28;20654;-72
2021/07/19 01:53:34;;;;;;;4.83;4.37;;;19.90;99.90;;;;;;5035089;28;20624;-70
2021/07/19 01:56:01;;;;;;;4.67;4.30;;;19.80;99.90;;;;;;5034746;28;21222;-72
2021/07/19 01:58:29;;;;;;;5.83;4.20;;;19.90;99.90;;;;;;5034737;28;20600;-70
2021/07/19 02:00:55;;;;;;;7.20;4.30;;;19.90;99.90;;;;;;5034576;28;20600;-70
2021/07/19 02:03:22;;;;;;;5.93;4.10;;;19.90;99.90;;;;;;5034425;28;20628;-70
2021/07/19 02:05:52;;;;;;;4.80;4.50;;;19.80;99.90;;;;;;5034263;28;20622;-71
2021/07/19 02:08:19;;;;;;;8.33;4.93;;;19.80;99.90;;;;;;5034695;28;20690;-71
2021/07/19 02:10:51;;;;;;;4.80;4.40;;;19.80;99.90;;;;;;5033843;28;20614;-71
2021/07/19 02:13:19;;;;;;;5.80;4.30;;;19.80;99.90;;;;;;5034439;28;20620;-71
2021/07/19 02:15:49;;;;;;;7.07;4.60;;;19.80;99.90;;;;;;5034202;28;20610;-71
2021/07/19 02:18:17;;;;;;;7.00;5.30;;;19.70;99.90;;;;;;5034418;28;20592;-71
2021/07/19 02:20:44;;;;;;;5.03;4.73;;;19.70;99.90;;;;;;5034531;28;20618;-71
2021/07/19 02:23:11;;;;;;;10.17;5.17;;;19.70;99.90;;;;;;5034519;28;20603;-70
2021/07/19 02:25:40;;;;;;;5.50;5.00;;;19.60;99.90;;;;;;5034151;28;20596;-71
2021/07/19 02:28:09;;;;;;;5.80;5.20;;;19.60;99.90;;;;;;5032838;28;20632;-71
2021/07/19 02:30:37;;;;;;;5.77;5.30;;;19.60;99.90;;;;;;5034370;28;21005;-71
2021/07/19 02:33:04;;;;;;;6.37;5.77;;;19.60;99.90;;;;;;5034215;28;20669;-71
2021/07/19 02:35:31;;;;;;;6.30;5.70;;;19.60;99.90;;;;;;5034031;28;20596;-71
2021/07/19 02:38:07;;;;;;;8.37;5.80;;;19.60;99.90;;;;;;5034229;28;20643;-71
2021/07/19 02:40:34;;;;;;;5.63;5.10;;;19.50;99.90;;;;;;5034108;28;20632;-70
2021/07/19 02:43:04;;;;;;;9.00;5.70;;;19.50;99.90;;;;;;5033950;28;21024;-70
2021/07/19 02:45:37;;;;;;;6.10;5.50;;;19.50;99.90;;;;;;5034045;28;20619;-70
2021/07/19 02:48:05;;;;;;;7.43;5.07;;;19.50;99.90;;;;;;5033927;28;21218;-70
2021/07/19 02:50:32;;;;;;;6.70;5.20;;;19.40;99.90;;;;;;5033650;28;20612;-70
2021/07/19 02:53:03;;;;;;;5.63;5.10;;;19.40;99.90;;;;;;5033892;28;20634;-70
2021/07/19 02:55:31;;;;;;;5.80;5.30;;;19.40;99.90;;;;;;5033937;28;21102;-71
2021/07/19 02:57:59;;;;;;;17.07;6.40;;;19.40;99.90;;;;;;5033903;28;20644;-71
2021/07/19 03:00:26;;;;;;;5.90;5.40;;;19.30;99.90;;;;;;5033494;28;20603;-71
2021/07/19 03:02:59;;;;;;;7.10;6.60;;;19.30;99.90;;;;;;5043783;28;20619;-71
2021/07/19 03:05:29;;;;;;;5.40;4.90;;;19.30;99.90;;;;;;5053096;28;20623;-71
2021/07/19 03:07:58;;;;;;;5.80;5.40;;;19.30;99.90;;;;;;5051976;28;20975;-71
2021/07/19 03:10:27;;;;;;;5.80;5.30;;;19.30;99.90;;;;;;5053225;28;20626;-71
2021/07/19 03:13:13;;;;;;;6.13;5.73;;;19.20;99.90;;;;;;5053062;28;20627;-71
2021/07/19 03:15:42;;;;;;;5.90;5.30;;;19.20;99.90;;;;;;5053219;28;21015;-71
2021/07/19 03:18:10;;;;;;;7.03;6.33;;;19.10;99.90;;;;;;5054002;28;20737;-71
2021/07/19 03:20:40;;;;;;;6.80;6.20;;;19.10;99.90;;;;;;5053801;28;20591;-71
2021/07/19 03:23:11;;;;;;;6.20;5.60;;;19.10;99.90;;;;;;5057069;28;20611;-71
2021/07/19 03:25:38;;;;;;;6.40;5.90;;;19.10;99.90;;;;;;5057224;28;20582;-71
2021/07/19 03:28:05;;;;;;;6.30;5.70;;;19.10;99.90;;;;;;5057595;28;21206;-71
2021/07/19 03:30:32;;;;;;;5.97;4.80;;;19.10;99.90;;;;;;5057472;28;20614;-71
2021/07/19 03:33:00;;;;;;;6.40;5.90;;;19.10;99.90;;;;;;5057231;28;20606;-71
2021/07/19 03:35:28;;;;;;;6.20;5.23;;;19.10;99.90;;;;;;5057390;28;20615;-70
2021/07/19 03:37:55;;;;;;;8.77;5.23;;;19.00;99.90;;;;;;5056903;28;20658;-71
2021/07/19 03:40:23;;;;;;;6.10;5.50;;;19.10;99.90;;;;;;5056104;28;20628;-71
2021/07/19 03:42:50;;;;;;;7.57;5.90;;;19.00;99.90;;;;;;5057436;28;20621;-71
2021/07/19 03:45:17;;;;;;;6.53;5.93;;;19.00;99.90;;;;;;5057212;28;20618;-71
2021/07/19 03:47:45;;;;;;;6.40;5.80;;;19.00;99.90;;;;;;5057094;28;20695;-71
2021/07/19 03:50:12;;;;;;;6.10;5.60;;;19.00;99.90;;;;;;5056944;28;20579;-71
2021/07/19 03:52:40;;;;;;;8.90;6.70;;;18.90;99.90;;;;;;5057172;28;20595;-70
2021/07/19 03:55:09;;;;;;;6.20;5.70;;;18.90;99.90;;;;;;5056970;28;21230;-71
2021/07/19 03:57:38;;;;;;;7.33;5.80;;;18.90;99.90;;;;;;5056663;28;20658;-71
2021/07/19 04:00:13;;;;;;;7.00;6.40;;;18.90;99.90;;;;;;5057208;28;21015;-71
2021/07/19 04:02:42;;;;;;;6.63;6.03;;;18.90;99.90;;;;;;5057014;28;20618;-70
2021/07/19 04:05:10;;;;;;;7.33;6.73;;;18.90;99.90;;;;;;5057043;28;20626;-70
2021/07/19 04:07:38;;;;;;;8.17;5.63;;;18.90;99.90;;;;;;5056912;28;20981;-71
2021/07/19 04:10:09;;;;;;;7.73;5.90;;;18.80;99.90;;;;;;5057049;28;20626;-70
2021/07/19 04:12:38;;;;;;;7.33;6.47;;;18.80;99.90;;;;;;5056976;28;20547;-71
2021/07/19 04:15:05;;;;;;;8.50;6.13;;;18.80;99.90;;;;;;5056961;28;20958;-71
2021/07/19 04:17:32;;;;;;;9.83;6.70;;;18.90;99.90;;;;;;5056429;28;20650;-71
2021/07/19 04:20:03;;;;;;;6.57;6.07;;;18.90;99.90;;;;;;5056769;28;20619;-71
2021/07/19 04:22:31;;;;;;;8.67;6.03;;;18.90;99.90;;;;;;5056658;28;21171;-71
2021/07/19 04:24:57;;;;;;;6.73;5.60;;;18.90;99.90;;;;;;5056275;28;20676;-71
2021/07/19 04:27:24;;;;;;;8.40;5.93;;;19.00;99.90;;;;;;5056312;28;20615;-71
2021/07/19 04:29:54;;;;;;;7.37;6.13;;;19.00;99.90;;;;;;5056332;28;20648;-71
2021/07/19 04:32:21;;;;;;;6.07;5.60;;;19.10;99.90;;;;;;5056333;28;20595;-71
2021/07/19 04:34:48;;;;;;;7.57;5.37;;;19.10;99.90;;;;;;5055446;28;20599;-71
2021/07/19 04:37:15;;;;;;;7.53;5.40;;;19.10;99.90;;;;;;5056211;28;20741;-71
2021/07/19 04:39:43;;;;;;;10.47;6.00;;;19.10;99.90;;;;;;5055990;28;20627;-71
2021/07/19 04:42:09;;;;;;;6.00;5.50;;;19.20;99.90;;;;;;5056361;28;21137;-71
2021/07/19 04:44:36;;;;;;;5.73;5.27;;;19.20;99.90;;;;;;5056108;28;20626;-71
2021/07/19 04:47:03;;;;;;;7.23;5.40;;;19.30;99.90;;;;;;5056167;28;20965;-71
2021/07/19 04:49:30;;;;;;;5.90;5.40;;;19.30;99.90;;;;;;5055783;28;20650;-71
2021/07/19 04:51:56;;;;;;;11.13;5.10;;;19.40;99.90;;;;;;5056129;28;20615;-71
2021/07/19 04:54:37;;;;;;;6.07;5.53;;;19.40;99.90;;;;;;5055686;28;20615;-71
2021/07/19 04:57:09;;;;;;;8.47;5.60;;;19.50;99.90;;;;;;5055481;28;20682;-71
2021/07/19 04:59:47;;;;;;;8.90;5.00;;;19.50;99.90;;;;;;5055512;28;20623;-71
2021/07/19 05:02:16;;;;;;;6.40;5.70;;;19.60;99.90;;;;;;5055918;28;20557;-71
2021/07/19 05:04:45;;;;;;;5.53;5.13;;;19.70;99.90;;;;;;5055811;28;20669;-71
2021/07/19 05:07:15;;;;;;;9.83;5.47;;;19.80;99.90;;;;;;5055805;28;20626;-71
2021/07/19 05:09:43;;;;;;;7.63;4.97;;;19.80;99.90;;;;;;5055546;28;20556;-71
2021/07/19 05:12:12;;;;;;;6.70;5.73;;;19.90;99.90;;;;;;5056527;28;20693;-71
2021/07/19 05:14:39;;;;;;;8.70;6.03;;;20.00;99.90;;;;;;5055322;28;20660;-71
2021/07/19 05:17:09;;;;;;;8.47;5.33;;;20.10;99.90;;;;;;5055557;28;20647;-71
2021/07/19 05:19:40;;;;;;;5.77;5.27;;;20.20;99.90;;;;;;5055373;28;20622;-71
2021/07/19 05:22:10;;;;;;;6.00;5.37;;;20.20;99.90;;;;;;5055413;28;21090;-71
2021/07/19 05:24:37;;;;;;;13.37;6.20;;;20.30;99.90;;;;;;5054785;28;20614;-71
2021/07/19 05:27:06;;;;;;;6.03;5.50;;;20.40;99.90;;;;;;5054990;28;20598;-71
2021/07/19 05:29:34;;;;;;;5.40;4.90;;;20.50;99.90;;;;;;5055218;28;20633;-71
2021/07/19 05:32:01;;;;;;;8.70;5.80;;;20.50;99.90;;;;;;5054888;28;20621;-71
2021/07/19 05:34:28;;;;;;;7.00;6.33;;;20.60;99.90;;;;;;5055088;28;20595;-71
2021/07/19 05:36:54;;;;;;;9.13;5.20;;;20.70;99.90;;;;;;5054755;28;21209;-71
2021/07/19 05:39:20;;;;;;;12.40;5.73;;;20.80;99.90;;;;;;5054755;28;20644;-71
2021/07/19 05:41:47;;;;;;;9.20;5.43;;;20.80;99.90;;;;;;5055029;28;20619;-71
2021/07/19 05:44:13;;;;;;;6.10;4.97;;;20.80;99.90;;;;;;5054006;28;20966;-71
2021/07/19 05:46:40;;;;;;;4.90;4.50;;;20.90;99.90;;;;;;5041377;28;20961;-71
2021/07/19 05:49:06;;;;;;;5.43;4.93;;;21.00;99.90;;;;;;5053840;28;20647;-71
2021/07/19 05:51:33;;;;;;;7.80;4.90;;;21.00;99.90;;;;;;5055178;28;20615;-71
2021/07/19 05:54:03;;;;;;;9.43;5.10;;;21.00;99.90;;;;;;5053024;28;20982;-71
2021/07/19 05:56:34;;;;;;;6.90;4.90;;;21.10;99.90;;;;;;5053968;28;20623;-71
2021/07/19 05:59:02;;;;;;;9.23;4.53;;;21.10;99.90;;;;;;5054171;28;20615;-71
2021/07/19 06:01:28;;;;;;;14.27;5.43;;;21.30;99.90;;;;;;5053579;28;20627;-71
2021/07/19 06:03:55;;;;;;;9.97;4.80;;;21.40;99.90;;;;;;5053051;28;20615;-71
2021/07/19 06:06:21;;;;;;;13.03;6.73;;;21.30;99.90;;;;;;5053743;28;21225;-71
2021/07/19 06:08:47;;;;;;;10.43;4.43;;;21.40;99.90;;;;;;5053905;28;20625;-71
2021/07/19 06:11:14;;;;;;;10.03;5.10;;;21.40;99.90;;;;;;5053810;28;20611;-71
2021/07/19 06:13:40;;;;;;;9.93;4.67;;;21.40;99.90;;;;;;5053636;28;20738;-71
2021/07/19 06:16:06;;;;;;;8.30;4.80;;;21.40;99.90;;;;;;5053994;28;21149;-71
2021/07/19 06:18:33;;;;;;;6.30;4.60;;;21.50;99.90;;;;;;5053649;28;21216;-72
2021/07/19 06:20:59;;;;;;;4.73;4.33;;;21.60;99.90;;;;;;5053820;28;20623;-72
2021/07/19 06:23:25;;;;;;;5.40;4.00;;;21.70;99.90;;;;;;5067733;28;20625;-72
2021/07/19 06:25:52;;;;;;;5.30;4.40;;;21.70;99.90;;;;;;5073676;28;20618;-72
2021/07/19 06:28:18;;;;;;;5.50;4.43;;;21.70;99.90;;;;;;5073483;28;20987;-72
2021/07/19 06:30:44;;;;;;;10.20;4.63;;;21.70;99.90;;;;;;5072204;28;20614;-71
2021/07/19 06:33:11;;;;;;;4.90;4.50;;;21.80;99.90;;;;;;5073685;28;20610;-71
2021/07/19 06:35:37;;;;;;;8.23;4.50;;;21.70;99.90;;;;;;5073374;28;20624;-71
2021/07/19 06:38:03;;;;;;;4.97;4.57;;;21.80;99.90;;;;;;5073270;28;20680;-71
2021/07/19 06:40:30;;;;;;;6.93;4.60;;;21.90;99.90;;;;;;5073126;28;20645;-72
2021/07/19 06:42:56;;;;;;;5.23;4.17;;;22.00;99.90;;;;;;5049945;28;20626;-72
2021/07/19 06:45:23;;;;;;;12.73;4.80;;;22.10;99.90;;;;;;5044525;28;20615;-72
2021/07/19 06:47:49;;;;;;;6.83;4.77;;;22.00;99.90;;;;;;5053179;28;20650;-72
2021/07/19 06:50:15;;;;;;;5.53;5.10;;;22.00;99.90;;;;;;5053389;28;20599;-72
2021/07/19 06:52:42;;;;;;;4.43;4.03;;;22.00;99.90;;;;;;5052920;28;20619;-73
2021/07/19 06:55:12;;;;;;;5.43;4.60;;;22.20;99.90;;;;;;5052548;28;20618;-73
2021/07/19 06:57:39;;;;;;;7.33;4.90;;;22.20;99.90;;;;;;5051866;28;20677;-72
2021/07/19 07:00:08;;;;;;;7.50;4.47;;;22.30;99.90;;;;;;5053226;28;20615;-72
2021/07/19 07:02:34;;;;;;;6.20;4.53;;;22.30;99.90;;;;;;5053781;28;20611;-73
2021/07/19 07:05:04;;;;;;;4.90;4.37;;;22.30;99.90;;;;;;5041576;28;20624;-72
2021/07/19 07:07:30;;;;;;;5.57;5.07;;;22.30;99.90;;;;;;5033961;28;20967;-72
2021/07/19 07:09:56;;;;;;;10.30;5.17;;;22.60;99.90;;;;;;5032591;28;20636;-72
2021/07/19 07:12:23;;;;;;;11.00;4.67;;;22.60;99.90;;;;;;5033795;28;20604;-73
2021/07/19 07:14:49;;;;;;;9.73;4.57;;;22.80;99.90;;;;;;5033512;28;20596;-73
2021/07/19 07:17:16;;;;;;;8.83;5.00;;;22.90;99.90;;;;;;5033420;28;20636;-73
2021/07/19 07:19:43;;;;;;;5.23;4.80;;;23.00;99.90;;;;;;5033855;28;20611;-73
2021/07/19 07:22:09;;;;;;;7.37;6.03;;;22.70;99.90;;;;;;5032563;28;20750;-72
2021/07/19 07:24:40;;;;;;;6.30;4.03;;;22.80;99.90;;;;;;5033329;28;20608;-72
2021/07/19 07:27:11;;;;;;;9.20;5.13;;;23.00;99.90;;;;;;5033733;28;20564;-72
2021/07/19 07:29:38;;;;;;;7.07;4.50;;;23.00;99.90;;;;;;5033500;28;20610;-72
2021/07/19 07:32:04;;;;;;;10.87;4.70;;;23.00;99.90;;;;;;5033715;28;20592;-72
2021/07/19 07:34:31;;;;;;;11.27;5.13;;;23.10;99.90;;;;;;5033403;28;20612;-70
2021/07/19 07:36:57;;;;;;;5.30;4.30;;;23.10;99.90;;;;;;5032172;28;20634;-70
2021/07/19 07:39:24;;;;;;;5.83;4.40;;;23.30;99.90;;;;;;5033127;28;21180;-72
2021/07/19 07:41:51;;;;;;;19.30;5.73;;;23.40;99.90;;;;;;5033459;28;20611;-72
2021/07/19 07:44:17;;;;;;;5.63;4.97;;;23.50;99.90;;;;;;5034087;28;21011;-72
2021/07/19 07:46:44;;;;;;;5.43;4.83;;;23.50;99.90;;;;;;5033447;28;20619;-72
2021/07/19 07:49:11;;;;;;;6.80;5.00;;;23.40;99.90;;;;;;5033111;28;20666;-72
2021/07/19 07:51:38;;;;;;;5.73;4.60;;;23.50;99.90;;;;;;5033212;28;20944;-71
2021/07/19 07:54:04;;;;;;;9.60;5.40;;;23.50;99.90;;;;;;5033494;28;20598;-71
2021/07/19 07:56:30;;;;;;;5.10;4.70;;;23.70;99.90;;;;;;5033261;28;20931;-71
2021/07/19 07:58:57;;;;;;;9.70;4.70;;;23.80;99.90;;;;;;5033381;28;20636;-70
2021/07/19 08:01:23;;;;;;;10.13;4.87;;;23.70;99.90;;;;;;5033275;28;20620;-70
2021/07/19 08:03:50;;;;;;;10.50;5.33;;;23.70;99.90;;;;;;5033179;28;20628;-70
2021/07/19 08:06:16;;;;;;;6.63;4.30;;;23.60;99.90;;;;;;5033358;28;20608;-71
2021/07/19 08:08:43;;;;;;;16.63;5.63;;;23.80;99.90;;;;;;5034275;28;20619;-71
2021/07/19 08:11:09;;;;;;;4.87;4.47;;;23.80;99.90;;;;;;5036657;28;20623;-70
2021/07/19 08:13:36;;;;;;;4.93;4.60;;;24.00;99.90;;;;;;5036758;28;20681;-70
2021/07/19 08:16:02;;;;;;;10.30;5.30;;;24.00;99.90;;;;;;5036898;28;20642;-70
2021/07/19 08:18:28;;;;;;;5.27;4.83;;;24.30;99.90;;;;;;5036609;28;20655;-70
2021/07/19 08:20:55;;;;;;;10.53;4.33;;;24.40;99.90;;;;;;5036367;28;20675;-71
2021/07/19 08:23:21;;;;;;;6.70;4.53;;;24.40;99.90;;;;;;5036381;28;20604;-71
2021/07/19 08:25:48;;;;;;;4.97;4.53;;;24.50;99.90;;;;;;5036559;28;21189;-71
2021/07/19 08:28:14;;;;;;;4.83;4.43;;;24.30;99.90;;;;;;5036710;28;21017;-71
2021/07/19 08:30:41;;;;;;;9.90;5.47;;;24.30;99.90;;;;;;5036228;28;20617;-71
2021/07/19 08:33:07;;;;;;;7.33;4.43;;;24.30;99.90;;;;;;5036364;28;20596;-71
2021/07/19 08:35:34;;;;;;;6.90;4.57;;;24.50;99.90;;;;;;5035837;28;20599;-71
2021/07/19 08:38:01;;;;;;;9.40;4.80;;;24.70;99.90;;;;;;5036241;28;20658;-71
2021/07/19 08:40:28;;;;;;;8.20;5.10;;;24.70;99.90;;;;;;5036753;28;20646;-71
2021/07/19 08:42:55;;;;;;;7.00;4.47;;;24.70;99.90;;;;;;5036350;28;20746;-71
2021/07/19 08:45:22;;;;;;;5.60;4.53;;;24.70;99.90;;;;;;5036202;28;20615;-71
2021/07/19 08:47:51;;;;;;;6.53;4.47;;;24.60;99.90;;;;;;5035814;28;20658;-71
2021/07/19 08:50:19;;;;;;;9.93;4.80;;;24.70;99.90;;;;;;5036273;28;20608;-71
2021/07/19 08:52:50;;;;;;;11.57;5.50;;;24.90;99.90;;;;;;5035839;28;20650;-71
2021/07/19 08:55:18;;;;;;;6.43;5.33;;;25.00;99.90;;;;;;5036149;28;20602;-72
2021/07/19 08:57:46;;;;;;;15.73;6.23;;;24.70;99.90;;;;;;5035707;28;20632;-71
2021/07/19 09:00:14;;;;;;;6.87;5.33;;;24.90;99.90;;;;;;5036244;28;21188;-71
2021/07/19 09:02:40;;;;;;;5.60;4.47;;;24.80;99.90;;;;;;5036368;28;20623;-71
2021/07/19 09:05:06;;;;;;;7.07;4.40;;;24.90;99.90;;;;;;5035601;28;20600;-71
2021/07/19 09:07:33;;;;;;;5.47;4.90;;;24.80;99.90;;;;;;5035815;28;20630;-71
2021/07/19 09:09:59;;;;;;;5.30;4.80;;;24.90;99.90;;;;;;5035923;28;20634;-71
2021/07/19 09:12:34;;;;;;;5.90;5.30;;;25.20;99.90;;;;;;5035817;28;20968;-71
2021/07/19 09:15:01;;;;;;;4.37;3.97;;;25.10;99.90;;;;;;5035285;28;20611;-71
2021/07/19 09:17:29;;;;;;;5.00;4.47;;;25.10;99.90;;;;;;5053723;28;20749;-71
2021/07/19 09:19:56;;;;;;;5.20;4.70;;;25.30;99.90;;;;;;5053174;28;21161;-71
2021/07/19 09:22:32;;;;;;;11.60;4.83;;;25.40;99.90;;;;;;5053810;28;20616;-71
2021/07/19 09:25:24;;;;;;;6.33;4.30;;;25.40;99.90;;;;;;5054849;28;20638;-71
2021/07/19 09:28:11;;;;;;;5.10;4.70;;;25.50;99.90;;;;;;5053161;28;20639;-71
2021/07/19 09:30:41;;;;;;;5.20;4.80;;;25.50;99.90;;;;;;5055320;28;20609;-71
2021/07/19 09:33:10;;;;;;;8.50;4.00;;;25.50;99.90;;;;;;5074651;28;20988;-72
2021/07/19 09:35:41;;;;;;;5.10;4.60;;;25.70;99.90;;;;;;5074263;28;20626;-71
2021/07/19 09:38:13;;;;;;;5.23;3.87;;;25.60;99.90;;;;;;5045241;28;21204;-72
2021/07/19 09:40:41;;;;;;;4.70;4.30;;;25.60;99.90;;;;;;5054652;28;21207;-71
2021/07/19 09:43:19;;;;;;;13.40;6.03;;;25.50;99.90;;;;;;5054494;28;21076;-71
2021/07/19 09:45:56;;;;;;;5.90;4.60;;;25.90;99.90;;;;;;5054464;28;20623;-71
2021/07/19 09:48:23;;;;;;;9.20;4.90;;;26.10;99.90;;;;;;5054741;28;20639;-71
2021/07/19 09:50:52;;;;;;;5.60;4.20;;;26.20;99.90;;;;;;5055159;28;21164;-71
2021/07/19 09:53:35;;;;;;;6.43;4.13;;;25.80;99.90;;;;;;5054964;28;20623;-72
2021/07/19 09:56:13;;;;;;;7.37;5.17;;;25.90;99.90;;;;;;5055095;28;20649;-72
2021/07/19 09:58:43;;;;;;;5.00;4.60;;;26.10;99.90;;;;;;5054872;28;20757;-72
2021/07/19 10:01:10;;;;;;;6.63;3.80;;;26.20;99.90;;;;;;5054844;28;20619;-71
2021/07/19 10:03:37;;;;;;;4.80;4.30;;;26.40;99.90;;;;;;5054645;28;20622;-71
2021/07/19 10:06:09;;;;;;;6.77;5.23;;;26.20;99.90;;;;;;5054320;28;20612;-71
2021/07/19 10:08:35;;;;;;;4.77;4.37;;;26.50;99.90;;;;;;5054650;28;20603;-72
2021/07/19 10:11:13;;;;;;;4.60;4.30;;;26.50;99.90;;;;;;5054697;28;20662;-72
2021/07/19 10:13:39;;;;;;;4.43;3.97;;;26.40;99.90;;;;;;5054449;28;20678;-72
2021/07/19 10:16:06;;;;;;;5.00;4.60;;;26.80;99.90;;;;;;5054407;28;20595;-71
2021/07/19 10:18:35;;;;;;;6.30;4.23;;;26.70;99.90;;;;;;5054335;28;20705;-72
2021/07/19 10:21:03;;;;;;;4.87;4.37;;;26.90;99.90;;;;;;5054674;28;20617;-71
2021/07/19 10:23:29;;;;;;;4.50;4.10;;;26.80;99.90;;;;;;5054443;28;20626;-71
2021/07/19 10:25:56;;;;;;;5.87;4.40;;;27.10;99.90;;;;;;5054620;28;20686;-71
2021/07/19 10:28:23;;;;;;;7.13;4.83;;;27.00;99.90;;;;;;5053879;28;20623;-71
2021/07/19 10:30:49;;;;;;;4.47;4.00;;;27.30;99.90;;;;;;5053905;28;21187;-71
2021/07/19 10:33:15;;;;;;;6.17;4.73;;;27.20;99.90;;;;;;5053168;28;20618;-71
2021/07/19 10:35:42;;;;;;;5.00;4.47;;;27.40;99.90;;;;;;5053242;28;20949;-71
2021/07/19 10:38:17;;;;;;;5.40;4.57;;;27.20;99.90;;;;;;5053193;28;20681;-71
2021/07/19 10:40:44;;;;;;;4.83;4.43;;;27.10;99.90;;;;;;5053279;28;20737;-71
2021/07/19 10:43:14;;;;;;;4.90;4.00;;;27.20;99.90;;;;;;5039895;28;20639;-70
2021/07/19 10:45:52;;;;;;;10.00;3.90;;;27.70;99.90;;;;;;5051946;28;20623;-70
2021/07/19 10:48:30;;;;;;;4.40;3.70;;;28.10;99.90;;;;;;5053041;28;20669;-70
2021/07/19 10:51:01;;;;;;;6.53;4.17;;;28.10;99.90;;;;;;5053694;28;20630;-71
2021/07/19 10:53:29;;;;;;;3.90;3.67;;;28.10;99.90;;;;;;5053475;28;20627;-71
2021/07/19 10:56:06;;;;;;;4.50;3.70;;;28.10;99.90;;;;;;5053124;28;21188;-71
2021/07/19 10:58:42;;;;;;;4.80;4.30;;;28.20;99.90;;;;;;5053247;28;20683;-71
2021/07/19 11:01:49;;;;;;;4.83;4.43;;;27.90;99.90;;;;;;5053676;28;20617;-71
2021/07/19 11:04:16;;;;;;;4.40;4.00;;;27.90;99.90;;;;;;5050674;28;20988;-73
2021/07/19 11:06:48;;;;;;;11.13;4.97;;;27.80;99.90;;;;;;5053732;28;20644;-71
2021/07/19 11:09:15;;;;;;;4.60;4.30;;;28.20;99.90;;;;;;5053910;28;20953;-72
2021/07/19 11:11:45;;;;;;;5.23;4.30;;;28.20;99.90;;;;;;5053402;28;20599;-71
2021/07/19 11:14:21;;;;;;;6.83;3.60;;;28.10;99.90;;;;;;5053779;28;20619;-71
2021/07/19 11:16:51;;;;;;;7.10;4.93;;;28.20;99.90;;;;;;5053482;28;20658;-71
2021/07/19 11:19:36;;;;;;;5.60;4.43;;;28.40;99.90;;;;;;5053510;28;20638;-71
2021/07/19 11:22:27;;;;;;;3.63;3.27;;;28.40;99.90;;;;;;5053538;28;20615;-71
2021/07/19 11:24:55;;;;;;;7.30;4.07;;;28.30;99.90;;;;;;5053654;28;21025;-71
2021/07/19 11:27:37;;;;;;;4.47;4.07;;;28.60;99.90;;;;;;5054027;28;21049;-71
2021/07/19 11:30:15;;;;;;;4.13;3.60;;;29.20;99.90;;;;;;5053538;28;20667;-70
2021/07/19 11:32:41;;;;;;;11.23;3.80;;;29.80;99.90;;;;;;5053072;28;20566;-71
2021/07/19 11:35:09;;;;;;;3.73;3.53;;;29.90;99.90;;;;;;5052078;28;21248;-71
2021/07/19 11:37:41;;;;;;;4.40;3.43;;;29.30;99.90;;;;;;5053445;28;20638;-70
2021/07/19 11:40:10;;;;;;;9.87;3.60;;;29.20;99.90;;;;;;5052979;28;20611;-70
2021/07/19 11:42:42;;;;;;;5.47;4.03;;;28.90;99.90;;;;;;5053573;28;20623;-71
2021/07/19 11:45:13;;;;;;;3.97;3.10;;;29.00;99.90;;;;;;5057300;28;20618;-70
2021/07/19 11:47:52;;;;;;;3.47;3.17;;;29.70;99.90;;;;;;5056677;28;20638;-71
2021/07/19 11:50:24;;;;;;;7.57;3.50;;;30.20;99.90;;;;;;5057158;28;20615;-70
2021/07/19 11:52:54;;;;;;;4.23;3.10;;;30.30;99.90;;;;;;5057453;28;20595;-74
2021/07/19 11:55:22;;;;;;;8.57;3.47;;;29.60;99.90;;;;;;5056787;28;20618;-70
2021/07/19 11:57:51;;;;;;;4.73;4.40;;;29.10;99.90;;;;;;5056561;28;20611;-70
2021/07/19 12:00:45;;;;;;;6.10;3.27;;;29.90;99.90;;;;;;5056597;28;20611;-70
2021/07/19 12:03:13;;;;;;;4.10;3.23;;;30.20;99.90;;;;;;5055153;28;20630;-70
2021/07/19 12:05:53;;;;;;;7.33;3.30;;;29.80;99.90;;;;;;5056295;28;20614;-70
2021/07/19 12:08:31;;;;;;;7.53;3.90;;;30.40;99.90;;;;;;5056443;28;20607;-70
2021/07/19 12:11:12;;;;;;;5.53;3.30;;;30.60;99.90;;;;;;5056280;28;20631;-70
2021/07/19 12:13:41;;;;;;;8.00;3.70;;;30.80;99.90;;;;;;5056721;28;20583;-70
2021/07/19 12:16:09;;;;;;;7.13;3.33;;;31.40;99.90;;;;;;5056290;28;20629;-70
2021/07/19 12:18:36;;;;;;;3.73;3.10;;;31.40;99.90;;;;;;5056371;28;20662;-70
2021/07/19 12:21:18;;;;;;;4.27;3.93;;;31.10;99.90;;;;;;5056511;28;20606;-70
2021/07/19 12:23:54;;;;;;;4.63;4.23;;;31.40;99.90;;;;;;5056067;28;20582;-70
2021/07/19 12:26:45;;;;;;;4.60;4.20;;;31.10;99.90;;;;;;5056494;28;20625;-70
2021/07/19 12:29:33;;;;;;;7.83;4.27;;;31.20;99.90;;;;;;5052909;28;21006;-70
2021/07/19 12:32:06;;;;;;;5.73;4.07;;;31.70;99.90;;;;;;5056158;28;21089;-70
2021/07/19 12:34:39;;;;;;;3.73;2.97;;;31.50;99.90;;;;;;5056291;28;20587;-70
2021/07/19 12:37:11;;;;;;;3.57;3.37;;;31.70;99.90;;;;;;5056050;28;20618;-70
2021/07/19 12:39:58;;;;;;;6.37;2.97;;;31.40;99.90;;;;;;5055889;28;20666;-70
2021/07/19 12:42:29;;;;;;;3.50;3.17;;;32.30;99.90;;;;;;5056215;28;20617;-70
2021/07/19 12:44:58;;;;;;;3.73;3.20;;;31.50;99.90;;;;;;5055820;28;20685;-70
2021/07/19 12:47:27;;;;;;;4.97;3.30;;;31.00;99.90;;;;;;5056067;28;20615;-70
2021/07/19 12:49:54;;;;;;;5.93;3.53;;;31.00;99.90;;;;;;5056058;28;20686;-70
2021/07/19 12:52:22;;;;;;;7.77;3.40;;;31.50;99.90;;;;;;5055792;28;20603;-70
2021/07/19 12:55:00;;;;;;;7.20;3.30;;;31.60;99.90;;;;;;5054770;28;20594;-70
2021/07/19 12:57:28;;;;;;;5.47;3.30;;;30.80;99.90;;;;;;5055600;28;20599;-70